createdAt,value
2018-12-27T09:33:59.980Z,41.30
2018-12-27T09:36:50.811Z,48.30
2018-12-27T09:39:41.131Z,51.47
2018-12-27T09:42:31.451Z,46.10
2018-12-27T09:45:21.939Z,44.63
2018-12-27T09:48:12.211Z,37.97
2018-12-27T09:51:02.538Z,36.20
2018-12-27T09:53:52.564Z,35.97
2018-12-27T09:56:43.416Z,38.60
2018-12-27T09:59:34.889Z,45.60
2018-12-27T10:02:25.218Z,40.53
2018-12-27T10:05:15.567Z,37.50
2018-12-27T10:08:05.966Z,38.80
2018-12-27T10:10:56.338Z,35.67
2018-12-27T10:13:46.728Z,34.87
2018-12-27T10:16:36.871Z,46.97
2018-12-27T10:19:27.311Z,40.50
2018-12-27T10:22:17.346Z,39.17
2018-12-27T10:25:07.887Z,44.47
2018-12-27T10:27:58.239Z,40.67
2018-12-27T10:30:48.618Z,40.77
2018-12-27T10:33:38.563Z,31.30
2018-12-27T10:36:28.835Z,34.60
2018-12-27T10:39:19.035Z,36.60
2018-12-27T10:42:09.612Z,34.50
2018-12-27T10:45:00.150Z,36.10
2018-12-27T10:47:50.219Z,38.73
2018-12-27T10:50:40.522Z,39.80
2018-12-27T10:53:30.956Z,36.43
2018-12-27T10:56:21.063Z,29.93
2018-12-27T10:59:11.366Z,30.93
2018-12-27T11:02:01.500Z,30.33
2018-12-27T11:04:52.074Z,37.60
2018-12-27T11:07:42.559Z,31.87
2018-12-27T11:10:32.843Z,34.23
2018-12-27T11:13:23.178Z,34.93
2018-12-27T11:16:13.561Z,35.27
2018-12-27T11:19:03.939Z,35.10
2018-12-27T11:21:54.258Z,32.73
2018-12-27T11:24:44.579Z,34.07
2018-12-27T11:27:35.198Z,32.93
2018-12-27T11:30:25.611Z,30.00
2018-12-27T11:33:15.965Z,28.47
2018-12-27T11:36:06.406Z,34.63
2018-12-27T11:38:56.874Z,41.70
2018-12-27T11:41:47.470Z,36.23
2018-12-27T11:44:37.751Z,38.37
2018-12-27T11:47:28.379Z,39.10
2018-12-27T11:50:18.630Z,31.67
2018-12-27T11:53:08.923Z,34.63
2018-12-27T11:56:00.011Z,49.37
2018-12-27T11:58:50.877Z,41.13
2018-12-27T12:01:41.283Z,39.33
2018-12-27T12:04:31.628Z,37.90
2018-12-27T12:07:21.710Z,46.07
2018-12-27T12:10:11.819Z,38.37
2018-12-27T12:13:02.106Z,35.63
2018-12-27T12:15:52.618Z,37.27
2018-12-27T12:18:42.962Z,38.90
2018-12-27T12:21:33.283Z,36.40
2018-12-27T12:24:23.583Z,37.40
2018-12-27T12:27:13.707Z,34.47
2018-12-27T12:30:04.830Z,36.87
2018-12-27T12:32:54.953Z,43.53
2018-12-27T12:35:45.895Z,30.87
2018-12-27T12:38:36.799Z,47.70
2018-12-27T12:41:27.187Z,41.87
2018-12-27T12:44:18.294Z,35.70
2018-12-27T12:47:08.355Z,39.60
2018-12-27T12:49:58.825Z,40.43
2018-12-27T12:52:49.674Z,38.33
2018-12-27T12:55:40.508Z,37.80
2018-12-27T12:58:30.779Z,38.63
2018-12-27T13:01:20.859Z,39.67
2018-12-27T13:04:11.195Z,41.00
2018-12-27T13:07:01.246Z,40.87
2018-12-27T13:09:51.716Z,38.70
2018-12-27T13:12:41.975Z,44.33
2018-12-27T13:15:32.507Z,38.30
2018-12-27T13:18:23.066Z,39.40
2018-12-27T13:21:13.671Z,42.37
2018-12-27T13:24:03.731Z,42.63
2018-12-27T13:26:54.134Z,35.97
2018-12-27T13:29:44.447Z,39.93
2018-12-27T13:32:34.600Z,37.73
2018-12-27T13:35:24.927Z,34.87
2018-12-27T13:38:15.259Z,41.83
2018-12-27T13:41:05.908Z,37.67
2018-12-27T13:43:56.406Z,37.93
2018-12-27T13:46:46.546Z,37.63
2018-12-27T13:49:36.634Z,41.30
2018-12-27T13:52:26.738Z,38.47
2018-12-27T13:55:17.114Z,49.43
2018-12-27T13:58:07.581Z,51.10
2018-12-27T14:00:58.127Z,43.77
2018-12-27T14:03:49.001Z,38.10
2018-12-27T14:08:46.771Z,45.50
2018-12-27T14:11:37.627Z,46.60
2018-12-27T14:14:27.803Z,50.83
2018-12-27T14:17:18.295Z,54.77
2018-12-27T14:20:08.979Z,42.07
2018-12-27T14:22:59.883Z,59.87
2018-12-27T14:25:50.123Z,43.57
2018-12-27T14:28:40.370Z,42.87
2018-12-27T14:31:30.766Z,41.93
2018-12-27T14:34:21.107Z,45.30
2018-12-27T14:37:11.531Z,39.67
2018-12-27T14:40:01.578Z,50.40
2018-12-27T14:42:51.802Z,45.43
2018-12-27T14:45:41.811Z,39.80
2018-12-27T14:48:32.010Z,45.40
2018-12-27T14:51:23.042Z,49.37
2018-12-27T14:54:13.365Z,49.77
2018-12-27T14:57:03.748Z,46.87
2018-12-27T14:59:54.024Z,44.97
2018-12-27T15:02:44.090Z,47.90
2018-12-27T15:05:34.378Z,40.07
2018-12-27T15:08:24.714Z,40.97
2018-12-27T15:11:15.099Z,39.23
2018-12-27T15:14:05.434Z,46.57
2018-12-27T15:16:55.583Z,55.13
2018-12-27T15:19:46.071Z,48.33
2018-12-27T15:22:36.590Z,40.40
2018-12-27T15:25:26.967Z,45.53
2018-12-27T15:28:17.338Z,41.83
2018-12-27T15:31:07.809Z,39.30
2018-12-27T15:33:58.112Z,38.20
2018-12-27T15:36:54.156Z,41.53
2018-12-27T15:39:39.694Z,41.10
2018-12-27T15:42:29.858Z,40.13
2018-12-27T15:45:20.210Z,43.27
2018-12-27T15:48:10.530Z,41.03
2018-12-27T15:51:01.633Z,37.90
2018-12-27T15:53:52.171Z,41.27
2018-12-27T15:56:42.496Z,41.23
2018-12-27T15:59:32.540Z,43.00
2018-12-27T16:02:22.872Z,40.33
2018-12-27T16:05:13.308Z,44.13
2018-12-27T16:08:03.404Z,48.50
2018-12-27T16:10:53.561Z,39.63
2018-12-27T16:13:43.623Z,37.33
2018-12-27T16:16:34.186Z,37.20
2018-12-27T16:19:24.575Z,43.70
2018-12-27T16:22:14.819Z,39.73
2018-12-27T16:25:05.047Z,37.07
2018-12-27T16:27:55.392Z,40.90
2018-12-27T16:30:45.470Z,39.00
2018-12-27T16:33:35.848Z,41.73
2018-12-27T16:36:26.239Z,48.40
2018-12-27T16:39:16.639Z,43.87
2018-12-27T16:42:06.734Z,41.13
2018-12-27T16:44:57.056Z,48.33
2018-12-27T16:47:47.295Z,45.43
2018-12-27T16:50:37.846Z,50.03
2018-12-27T16:53:27.942Z,55.03
2018-12-27T16:56:18.006Z,49.70
2018-12-27T16:59:08.177Z,54.70
2018-12-27T17:01:58.566Z,55.90
2018-12-27T17:04:48.979Z,54.10
2018-12-27T17:07:39.373Z,48.93
2018-12-27T17:10:29.787Z,78.00
2018-12-27T17:13:20.188Z,70.37
2018-12-27T17:16:10.796Z,60.33
2018-12-27T17:19:02.281Z,59.30
2018-12-27T17:21:52.638Z,56.57
2018-12-27T17:24:42.753Z,47.10
2018-12-27T17:27:33.359Z,47.67
2018-12-27T17:30:23.723Z,54.90
2018-12-27T17:33:14.308Z,58.57
2018-12-27T17:36:04.627Z,52.33
2018-12-27T17:38:55.543Z,53.13
2018-12-27T17:41:45.920Z,56.47
2018-12-27T17:44:36.807Z,54.77
2018-12-27T17:47:27.216Z,54.07
2018-12-27T17:50:17.555Z,51.77
2018-12-27T17:53:08.022Z,61.87
2018-12-27T17:55:58.488Z,62.17
2018-12-27T17:58:49.142Z,52.33
2018-12-27T18:01:39.427Z,58.33
2018-12-27T18:04:29.700Z,66.40
2018-12-27T18:07:19.994Z,71.73
2018-12-27T18:10:10.400Z,59.00
2018-12-27T18:13:00.520Z,56.27
2018-12-27T18:15:51.046Z,68.17
2018-12-27T18:18:41.102Z,62.50
2018-12-27T18:21:31.862Z,62.97
2018-12-27T18:24:22.318Z,52.23
2018-12-27T18:27:12.398Z,51.97
2018-12-27T18:30:02.755Z,61.23
2018-12-27T18:32:53.925Z,63.20
2018-12-27T18:35:44.108Z,51.30
2018-12-27T18:38:34.214Z,61.53
2018-12-27T18:41:25.171Z,57.27
2018-12-27T18:44:15.251Z,63.37
2018-12-27T18:47:05.574Z,59.40
2018-12-27T18:49:55.649Z,59.97
2018-12-27T18:52:46.235Z,61.93
2018-12-27T18:55:36.463Z,61.77
2018-12-27T18:58:26.834Z,64.43
2018-12-27T19:01:17.187Z,61.23
2018-12-27T19:04:07.879Z,74.80
2018-12-27T19:06:58.787Z,68.57
2018-12-27T19:09:48.904Z,58.67
2018-12-27T19:13:16.154Z,58.57
2018-12-27T19:16:06.487Z,62.03
2018-12-27T19:18:56.644Z,60.37
2018-12-27T19:22:01.167Z,65.90
2018-12-27T19:24:51.730Z,58.13
2018-12-27T19:27:42.069Z,68.20
2018-12-27T19:30:32.250Z,65.00
2018-12-27T19:33:22.455Z,65.13
2018-12-27T19:36:12.579Z,56.63
2018-12-27T19:39:02.658Z,67.80
2018-12-27T19:41:52.759Z,68.33
2018-12-27T19:44:42.838Z,72.90
2018-12-27T19:47:32.963Z,66.10
2018-12-27T19:50:24.211Z,65.93
2018-12-27T19:53:14.822Z,64.17
2018-12-27T19:56:05.210Z,65.80
2018-12-27T19:58:55.663Z,66.93
2018-12-27T20:01:46.029Z,68.63
2018-12-27T20:04:36.275Z,69.10
2018-12-27T20:07:26.591Z,61.73
2018-12-27T20:10:17.423Z,67.73
2018-12-27T20:13:07.798Z,62.83
2018-12-27T20:15:57.906Z,61.13
2018-12-27T20:18:48.059Z,66.83
2018-12-27T20:21:38.163Z,57.93
2018-12-27T20:24:28.507Z,60.70
2018-12-27T20:27:18.734Z,60.50
2018-12-27T20:30:09.487Z,56.83
2018-12-27T20:33:00.535Z,73.93
2018-12-27T20:35:51.262Z,65.33
2018-12-27T20:38:41.588Z,56.97
2018-12-27T20:41:31.898Z,65.37
2018-12-27T20:44:22.319Z,82.37
2018-12-27T20:47:12.727Z,72.03
2018-12-27T20:50:02.775Z,64.50
2018-12-27T20:52:53.082Z,70.00
2018-12-27T20:55:43.779Z,69.67
2018-12-27T20:58:34.205Z,66.77
2018-12-27T21:01:24.472Z,61.37
2018-12-27T21:04:15.029Z,63.27
2018-12-27T21:07:05.131Z,66.23
2018-12-27T21:09:55.468Z,63.17
2018-12-27T21:12:46.247Z,73.10
2018-12-27T21:15:36.371Z,64.23
2018-12-27T21:18:26.473Z,58.53
2018-12-27T21:21:16.523Z,62.17
2018-12-27T21:24:07.307Z,61.97
2018-12-27T21:26:57.718Z,66.90
2018-12-27T21:29:48.182Z,67.87
2018-12-27T21:32:38.375Z,64.40
2018-12-27T21:35:28.563Z,66.83
2018-12-27T21:38:21.540Z,59.83
2018-12-27T21:41:10.382Z,60.13
2018-12-27T21:44:01.258Z,58.70
2018-12-27T21:46:51.367Z,61.57
2018-12-27T21:49:41.673Z,70.30
2018-12-27T21:52:32.135Z,64.93
2018-12-27T21:55:22.221Z,65.47
2018-12-27T21:58:12.471Z,64.03
2018-12-27T22:01:02.942Z,65.23
2018-12-27T22:03:53.574Z,61.97
2018-12-27T22:06:44.163Z,66.13
2018-12-27T22:09:34.481Z,70.43
2018-12-27T22:12:24.542Z,68.93
2018-12-27T22:15:14.607Z,68.07
2018-12-27T22:18:05.038Z,68.20
2018-12-27T22:20:55.286Z,63.17
2018-12-27T22:23:45.294Z,66.90
2018-12-27T22:26:35.355Z,66.47
2018-12-27T22:29:25.754Z,66.97
2018-12-27T22:32:16.344Z,69.27
2018-12-27T22:35:06.444Z,72.30
2018-12-27T22:37:56.872Z,61.13
2018-12-27T22:40:47.003Z,60.00
2018-12-27T22:43:37.428Z,67.03
2018-12-27T22:46:27.795Z,73.00
2018-12-27T22:49:18.167Z,67.70
2018-12-27T22:52:08.555Z,64.37
2018-12-27T22:54:58.895Z,71.43
2018-12-27T22:57:49.083Z,61.63
2018-12-27T23:00:40.391Z,62.73
2018-12-27T23:03:30.795Z,62.97
2018-12-27T23:06:21.125Z,72.23
2018-12-27T23:09:11.397Z,72.57
2018-12-27T23:12:01.850Z,70.33
2018-12-27T23:14:52.522Z,69.83
2018-12-27T23:17:42.947Z,66.67
2018-12-27T23:20:33.311Z,77.73
2018-12-27T23:23:23.857Z,69.30
2018-12-27T23:26:14.798Z,69.80
2018-12-27T23:29:05.255Z,64.37
2018-12-27T23:31:55.730Z,70.67
2018-12-27T23:34:46.395Z,68.93
2018-12-27T23:37:37.110Z,68.43
2018-12-27T23:40:27.194Z,71.03
2018-12-27T23:43:17.507Z,60.57
2018-12-27T23:46:08.426Z,72.07
2018-12-27T23:48:58.542Z,66.90
2018-12-27T23:51:49.199Z,68.73
2018-12-27T23:54:39.789Z,67.77
2018-12-27T23:57:30.191Z,69.57
